createdAt,value
2018-05-18T06:21:36.926Z,42.84
2018-05-18T06:22:09.186Z,42.84
2018-05-18T06:22:41.335Z,42.84
2018-05-18T06:23:13.446Z,42.74
2018-05-18T06:23:45.506Z,42.84
2018-05-18T06:24:17.538Z,42.93
2018-05-18T06:24:49.630Z,42.84
2018-05-18T06:25:21.720Z,42.84
2018-05-18T06:25:53.822Z,42.74
2018-05-18T06:26:26.001Z,43.03
2018-05-18T06:26:58.105Z,42.93
2018-05-18T06:30:09.274Z,42.96
2018-05-18T06:30:41.378Z,42.76
2018-05-18T06:31:13.513Z,42.96
2018-05-18T06:31:45.584Z,42.76
2018-05-18T06:32:18.182Z,43.05
2018-05-18T06:32:50.284Z,42.96
2018-05-18T06:33:22.406Z,42.96
2018-05-18T06:33:54.467Z,43.05
2018-05-18T06:34:26.563Z,43.05
2018-05-18T06:34:58.777Z,42.96
2018-05-18T06:35:30.787Z,42.96
2018-05-18T06:36:02.856Z,43.05
2018-05-18T06:36:34.924Z,43.05
2018-05-18T06:37:07.031Z,43.05
2018-05-18T06:37:39.141Z,42.96
2018-05-18T06:38:11.212Z,42.96
2018-05-18T06:38:43.298Z,43.05
2018-05-18T06:39:15.393Z,42.96
2018-05-18T06:39:47.520Z,43.05
2018-05-18T06:40:19.686Z,42.96
2018-05-18T06:40:51.768Z,42.96
2018-05-18T06:41:23.652Z,42.86
2018-05-18T06:43:15.039Z,42.96
2018-05-18T06:43:47.120Z,42.96
2018-05-18T06:44:19.827Z,42.96
2018-05-18T06:44:52.048Z,43.05
2018-05-18T06:45:24.060Z,42.96
2018-05-18T06:45:56.129Z,43.05
2018-05-18T06:46:28.184Z,43.05
2018-05-18T06:47:00.262Z,42.96
2018-05-18T06:47:32.405Z,42.76
2018-05-18T06:48:04.511Z,42.76
2018-05-18T06:48:36.580Z,42.86
2018-05-18T06:49:08.661Z,43.05
2018-05-18T06:52:19.553Z,42.88
2018-05-18T06:52:51.666Z,42.88
2018-05-18T06:53:23.756Z,42.97
2018-05-18T06:53:55.853Z,42.97
2018-05-18T06:54:27.932Z,42.97
2018-05-18T06:55:00.024Z,42.79
2018-05-18T06:55:32.125Z,42.79
2018-05-18T06:56:04.188Z,42.69
2018-05-18T06:56:36.299Z,42.79
2018-05-18T06:58:27.868Z,42.79
2018-05-18T06:58:59.973Z,42.69
2018-05-18T06:59:32.061Z,42.79
2018-05-18T07:00:04.196Z,42.88
2018-05-18T07:00:36.308Z,42.88
2018-05-18T07:01:08.416Z,42.88
2018-05-18T07:01:40.515Z,42.88
2018-05-18T07:02:12.590Z,42.88
2018-05-18T07:02:44.655Z,42.69
2018-05-18T07:04:36.035Z,42.97
2018-05-18T07:05:08.142Z,42.88
2018-05-18T07:05:40.289Z,42.69
2018-05-18T07:06:12.401Z,42.69
2018-05-18T07:06:44.516Z,42.69
2018-05-18T07:08:36.067Z,42.88
2018-05-18T07:10:27.652Z,42.69
2018-05-18T07:10:59.725Z,42.8
2018-05-18T07:11:31.804Z,42.9
2018-05-18T07:12:03.926Z,42.8
2018-05-18T07:12:36.028Z,42.69
2018-05-18T07:13:08.112Z,42.8
2018-05-18T07:14:59.541Z,42.8
2018-05-18T07:15:31.624Z,42.71
2018-05-18T07:16:03.712Z,42.71
2018-05-18T07:16:35.849Z,42.71
2018-05-18T07:17:07.923Z,42.8
2018-05-18T07:17:40.011Z,42.61
2018-05-18T07:18:12.085Z,42.71
2018-05-18T07:18:44.173Z,42.71
2018-05-18T07:20:35.800Z,42.61
2018-05-18T07:21:07.928Z,42.71
2018-05-18T07:22:59.732Z,42.52
2018-05-18T07:23:31.777Z,42.8
2018-05-18T07:24:03.868Z,42.52
2018-05-18T07:24:36.035Z,42.52
2018-05-18T07:25:08.114Z,42.71
2018-05-18T07:25:40.208Z,42.71
2018-05-18T07:26:12.305Z,42.52
2018-05-18T07:26:44.389Z,42.42
2018-05-18T07:27:16.486Z,42.42
2018-05-18T07:27:48.574Z,42.52
2018-05-18T07:29:39.978Z,42.52
2018-05-18T07:30:12.098Z,42.44
2018-05-18T07:32:03.574Z,42.54
2018-05-18T07:32:35.666Z,42.44
2018-05-18T07:34:27.077Z,42.25
2018-05-18T07:34:59.273Z,42.44
2018-05-18T07:35:31.435Z,42.54
2018-05-18T07:36:03.736Z,42.35
2018-05-18T07:36:35.858Z,42.35
2018-05-18T07:37:08.128Z,42.44
2018-05-18T07:37:40.397Z,42.44
2018-05-18T07:38:12.646Z,42.83
2018-05-18T07:38:44.794Z,42.35
2018-05-18T07:39:17.053Z,42.35
2018-05-18T07:39:49.149Z,42.35
2018-05-18T07:40:21.223Z,42.44
2018-05-18T07:40:53.308Z,42.35
2018-05-18T07:41:25.426Z,42.35
2018-05-18T07:41:57.520Z,42.44
2018-05-18T07:42:29.631Z,42.44
2018-05-18T07:43:01.707Z,42.54
2018-05-18T07:43:33.937Z,42.75
2018-05-18T07:44:06.052Z,42.44
2018-05-18T07:44:38.148Z,42.56
2018-05-18T07:45:10.226Z,42.44
2018-05-18T07:45:42.299Z,42.46
2018-05-18T07:46:14.400Z,42.25
2018-05-18T07:46:46.503Z,42.63
2018-05-18T07:47:18.598Z,42.56
2018-05-18T07:47:50.687Z,42.36
2018-05-18T07:48:22.793Z,42.56
2018-05-18T07:48:54.884Z,42.36
2018-05-18T07:50:46.505Z,42.18
2018-05-18T07:51:18.603Z,42.27
2018-05-18T07:51:50.704Z,42.46
2018-05-18T07:52:22.765Z,42.18
2018-05-18T07:52:54.874Z,42.27
2018-05-18T07:53:26.964Z,42.27
2018-05-18T07:53:59.059Z,42.36
2018-05-18T07:54:31.164Z,42.27
2018-05-18T07:56:22.965Z,42.18
2018-05-18T07:56:55.037Z,42.27
2018-05-18T07:57:27.114Z,42.18
2018-05-18T08:00:38.430Z,41.98
2018-05-18T08:01:10.516Z,42.27
2018-05-18T08:01:42.595Z,42.08
2018-05-18T08:02:14.688Z,42.1
2018-05-18T08:02:46.767Z,42.08
2018-05-18T08:04:38.091Z,42.08
2018-05-18T08:06:29.598Z,42.18
2018-05-18T08:07:01.712Z,42.18
2018-05-18T08:07:33.811Z,42.19
2018-05-18T08:08:05.897Z,42.19
2018-05-18T08:08:37.974Z,42.1
2018-05-18T08:09:10.068Z,42.1
2018-05-18T08:09:42.164Z,42.19
2018-05-18T08:10:14.267Z,42.1
2018-05-18T08:10:46.370Z,42.19
2018-05-18T08:11:18.444Z,42.1
2018-05-18T08:11:50.415Z,42.19
2018-05-18T08:12:22.509Z,42
2018-05-18T08:12:54.620Z,42
2018-05-18T08:13:26.719Z,42.1
2018-05-18T08:13:58.822Z,42.1
2018-05-18T08:14:30.904Z,42
2018-05-18T08:16:22.596Z,42
2018-05-18T08:16:54.659Z,42
2018-05-18T08:17:26.757Z,42
2018-05-18T08:17:58.837Z,41.81
2018-05-18T08:19:50.260Z,42.29
2018-05-18T08:20:24.145Z,41.71
2018-05-18T08:20:57.447Z,41.81
2018-05-18T08:24:08.505Z,41.71
2018-05-18T08:24:40.600Z,42
2018-05-18T08:25:12.667Z,41.91
2018-05-18T08:25:44.837Z,41.71
2018-05-18T08:26:16.965Z,41.71
2018-05-18T08:26:49.071Z,41.83
2018-05-18T08:27:21.219Z,41.93
2018-05-18T08:27:53.342Z,42.02
2018-05-18T08:28:25.422Z,42.12
2018-05-18T08:28:57.567Z,42.12
2018-05-18T08:29:29.721Z,41.73
2018-05-18T08:30:01.795Z,41.54
2018-05-18T08:30:33.887Z,41.63
2018-05-18T08:31:06.051Z,42.12
2018-05-18T08:31:38.159Z,41.63
2018-05-18T08:33:30.381Z,42.21
2018-05-18T08:34:05.587Z,41.73
2018-05-18T08:34:39.211Z,41.73
2018-05-18T08:35:13.095Z,42.12
2018-05-18T08:38:25.641Z,41.83
2018-05-18T08:38:57.768Z,41.73
2018-05-18T08:39:29.896Z,41.83
2018-05-18T08:40:01.977Z,41.83
2018-05-18T08:40:34.090Z,41.85
2018-05-18T08:42:25.437Z,42.12
2018-05-18T08:44:17.142Z,41.75
2018-05-18T08:44:49.565Z,41.66
2018-05-18T08:45:21.668Z,41.75
2018-05-18T08:48:32.626Z,41.75
2018-05-18T08:49:04.717Z,41.75
2018-05-18T08:49:36.802Z,41.56
2018-05-18T08:50:11.492Z,41.56
2018-05-18T08:52:03.145Z,41.66
2018-05-18T08:52:35.363Z,41.66
2018-05-18T08:53:07.446Z,41.94
2018-05-18T08:53:39.525Z,41.56
2018-05-18T08:54:11.782Z,41.75
2018-05-18T08:54:43.856Z,41.66
2018-05-18T08:56:35.198Z,41.56
2018-05-18T08:57:07.287Z,41.75
2018-05-18T08:57:39.334Z,41.75
2018-05-18T08:58:11.412Z,41.75
2018-05-18T08:58:43.512Z,41.46
2018-05-18T08:59:15.623Z,41.66
2018-05-18T08:59:47.727Z,41.66
2018-05-18T09:00:19.818Z,41.46
2018-05-18T09:00:52.581Z,41.75
2018-05-18T09:01:24.640Z,41.66
2018-05-18T09:01:56.811Z,41.56
2018-05-18T09:02:28.913Z,41.75
2018-05-18T09:03:01.024Z,41.56
2018-05-18T09:03:33.126Z,41.56
2018-05-18T09:04:05.243Z,41.85
2018-05-18T09:04:37.344Z,41.75
2018-05-18T09:05:09.410Z,41.75
2018-05-18T09:05:41.502Z,41.56
2018-05-18T09:06:13.612Z,41.94
2018-05-18T09:06:45.732Z,41.66
2018-05-18T09:07:17.842Z,41.46
2018-05-18T09:07:49.960Z,41.56
2018-05-18T09:08:22.062Z,41.75
2018-05-18T09:08:54.264Z,41.75
2018-05-18T09:09:26.905Z,41.66
2018-05-18T09:09:58.973Z,41.75
2018-05-18T09:10:31.060Z,41.75
2018-05-18T09:11:03.544Z,41.46
2018-05-18T09:11:36.308Z,41.36
2018-05-18T09:12:08.399Z,41.36
2018-05-18T09:12:43.251Z,41.46
2018-05-18T09:14:35.047Z,41.46
2018-05-18T09:15:07.137Z,41.39
2018-05-18T09:15:39.208Z,41.48
2018-05-18T09:16:11.239Z,41.75
2018-05-18T09:16:43.339Z,41.46
2018-05-18T09:17:15.434Z,41.46
2018-05-18T09:17:47.543Z,41.48
2018-05-18T09:18:19.644Z,41.39
2018-05-18T09:20:11.134Z,41.39
2018-05-18T09:20:43.227Z,41.29
2018-05-18T09:21:15.272Z,41.29
2018-05-18T09:21:47.376Z,41.09
2018-05-18T09:22:19.525Z,41.09
2018-05-18T09:22:51.752Z,41.5
2018-05-18T09:23:23.840Z,41.19
2018-05-18T09:26:35.057Z,41.11
2018-05-18T09:27:07.160Z,41.21
2018-05-18T09:27:39.260Z,41.21
2018-05-18T09:28:11.336Z,41.41
2018-05-18T09:28:43.418Z,41.41
2018-05-18T09:30:34.991Z,41.02
2018-05-18T09:31:07.076Z,41.04
2018-05-18T09:31:39.170Z,41.41
2018-05-18T09:32:11.269Z,41.04
2018-05-18T09:32:43.396Z,40.84
2018-05-18T09:33:15.471Z,41.04
2018-05-18T09:35:07.130Z,41.31
2018-05-18T09:35:39.173Z,41.04
2018-05-18T09:36:11.222Z,40.94
2018-05-18T09:36:43.242Z,40.94
2018-05-18T09:37:15.276Z,41.14
2018-05-18T09:37:47.257Z,40.92
2018-05-18T09:38:19.276Z,41.33
2018-05-18T09:38:51.297Z,41.04
2018-05-18T09:39:23.368Z,41.04
2018-05-18T09:39:55.422Z,41.04
2018-05-18T09:40:27.591Z,41.04
2018-05-18T09:40:59.622Z,41.42
2018-05-18T09:41:31.660Z,41.04
2018-05-18T09:42:03.694Z,41.24
2018-05-18T09:42:35.754Z,40.94
2018-05-18T09:43:07.730Z,41.04
2018-05-18T09:43:39.880Z,40.84
2018-05-18T09:44:12.525Z,40.94
2018-05-18T09:44:44.615Z,41.33
2018-05-18T09:45:16.637Z,41.04
2018-05-18T09:45:48.996Z,40.94
2018-05-18T09:46:21.036Z,41.42
2018-05-18T09:46:53.043Z,40.94
2018-05-18T09:47:25.099Z,41.04
2018-05-18T09:47:57.161Z,40.94
2018-05-18T09:48:29.151Z,41.14
2018-05-18T09:49:01.196Z,41.14
2018-05-18T09:49:33.356Z,41.04
2018-05-18T09:50:05.373Z,41.04
2018-05-18T09:50:37.399Z,41.04
2018-05-18T09:51:09.429Z,40.96
2018-05-18T09:51:41.584Z,41.06
2018-05-18T09:52:13.679Z,40.96
2018-05-18T09:52:45.718Z,40.96
2018-05-18T09:53:17.758Z,40.77
2018-05-18T09:53:49.785Z,40.96
2018-05-18T09:54:21.914Z,41.06
2018-05-18T09:54:54.892Z,41.06
2018-05-18T09:55:28.074Z,40.96
2018-05-18T09:56:00.485Z,41.06
2018-05-18T09:56:32.496Z,40.77
2018-05-18T09:57:04.505Z,40.77
2018-05-18T09:57:36.568Z,40.86
2018-05-18T09:58:08.517Z,40.86
2018-05-18T09:58:40.562Z,40.79
2018-05-18T09:59:12.617Z,40.79
2018-05-18T09:59:44.620Z,40.59
2018-05-18T10:00:16.648Z,40.69
2018-05-18T10:00:48.788Z,40.59
2018-05-18T10:01:20.782Z,40.5
2018-05-18T10:01:52.818Z,40.5
2018-05-18T10:02:24.863Z,40.69
2018-05-18T10:02:57.022Z,40.31
2018-05-18T10:03:29.612Z,40.4
2018-05-18T10:04:01.586Z,40.4
2018-05-18T10:04:33.631Z,40.59
2018-05-18T10:05:05.678Z,40.69
2018-05-18T10:05:37.706Z,40.4
2018-05-18T10:06:09.766Z,40.4
2018-05-18T10:06:41.790Z,40.69
2018-05-18T10:07:13.932Z,40.69
2018-05-18T10:07:45.982Z,40.69
2018-05-18T10:08:18.017Z,40.59
2018-05-18T10:08:50.031Z,40.59
2018-05-18T10:09:22.050Z,40.5
2018-05-18T10:09:54.057Z,40.11
2018-05-18T10:10:26.081Z,40.23
2018-05-18T10:10:58.093Z,40.03
2018-05-18T10:11:30.106Z,40.03
2018-05-18T10:12:02.145Z,40.03
2018-05-18T10:12:34.161Z,40.52
2018-05-18T10:13:06.235Z,40.03
2018-05-18T10:13:38.384Z,40.52
2018-05-18T10:14:10.406Z,40.13
2018-05-18T10:14:42.430Z,40.52
2018-05-18T10:15:14.471Z,40.42
2018-05-18T10:15:47.333Z,40.61
2018-05-18T10:16:19.358Z,40.33
2018-05-18T10:16:51.393Z,40.03
2018-05-18T10:17:23.475Z,40.23
2018-05-18T10:17:55.475Z,40.5
2018-05-18T10:18:27.525Z,40.03
2018-05-18T10:18:59.683Z,40.13
2018-05-18T10:19:31.684Z,40.52
2018-05-18T10:20:03.724Z,40.13
2018-05-18T10:20:35.816Z,40.23
2018-05-18T10:21:07.909Z,40.52
2018-05-18T10:21:40.052Z,40.52
2018-05-18T10:22:12.108Z,40.52
2018-05-18T10:22:44.100Z,40.42
2018-05-18T10:23:16.117Z,40.42
2018-05-18T10:23:48.130Z,40.33
2018-05-18T10:24:20.156Z,40.42
2018-05-18T10:24:52.137Z,40.23
2018-05-18T10:25:24.168Z,40.52
2018-05-18T10:25:56.191Z,40.42
2018-05-18T10:26:28.235Z,40.33
2018-05-18T10:27:00.278Z,40.23
2018-05-18T10:27:32.366Z,40.25
2018-05-18T10:28:04.485Z,40.34
2018-05-18T10:28:36.576Z,40.34
2018-05-18T10:29:08.601Z,40.34
2018-05-18T10:29:40.619Z,40.54
2018-05-18T10:30:12.645Z,40.44
2018-05-18T10:30:44.637Z,40.44
2018-05-18T10:31:16.673Z,40.05
2018-05-18T10:31:48.693Z,40.08
2018-05-18T10:32:20.805Z,40.15
2018-05-18T10:32:53.116Z,40.17
2018-05-18T10:33:25.007Z,40.46
2018-05-18T10:33:57.010Z,40.46
2018-05-18T10:34:29.066Z,40.26
2018-05-18T10:35:01.097Z,40.46
2018-05-18T10:35:33.093Z,40.36
2018-05-18T10:36:05.190Z,40.56
2018-05-18T10:36:37.338Z,40.26
2018-05-18T10:37:09.537Z,40.26
2018-05-18T10:37:41.555Z,39.98
2018-05-18T10:38:13.585Z,40.26
2018-05-18T10:38:45.604Z,40.09
2018-05-18T10:39:17.984Z,40.08
2018-05-18T10:39:50.058Z,40.19
2018-05-18T10:40:22.146Z,40.09
2018-05-18T10:40:54.196Z,40.08
2018-05-18T10:41:26.232Z,40.19
2018-05-18T10:41:58.416Z,40.09
2018-05-18T10:42:30.414Z,40.09
2018-05-18T10:43:02.526Z,40.19
2018-05-18T10:43:34.656Z,40
2018-05-18T10:44:06.639Z,40.19
2018-05-18T10:44:38.790Z,39.9
2018-05-18T10:45:11.396Z,39.9
2018-05-18T10:45:43.535Z,39.9
2018-05-18T10:46:15.610Z,39.9
2018-05-18T10:46:47.640Z,39.9
2018-05-18T10:47:19.690Z,40.29
2018-05-18T10:47:51.744Z,40.09
2018-05-18T10:48:23.775Z,40.09
2018-05-18T10:48:55.824Z,40
2018-05-18T10:49:28.513Z,39.9
2018-05-18T10:50:00.579Z,40.09
2018-05-18T10:50:32.728Z,40.21
2018-05-18T10:51:04.735Z,39.8
2018-05-18T10:51:36.757Z,40
2018-05-18T10:52:08.762Z,39.8
2018-05-18T10:52:40.811Z,39.82
2018-05-18T10:53:12.815Z,39.41
2018-05-18T10:53:44.891Z,39.82
2018-05-18T10:54:17.059Z,39.82
2018-05-18T10:54:49.173Z,39.41
2018-05-18T10:55:21.213Z,39.62
2018-05-18T10:55:53.336Z,39.53
2018-05-18T10:56:25.296Z,39.72
2018-05-18T10:56:57.399Z,39.62
2018-05-18T10:57:29.535Z,39.62
2018-05-18T10:58:01.610Z,39.34
2018-05-18T10:58:33.710Z,39.62
2018-05-18T10:59:05.816Z,39.53
2018-05-18T10:59:37.841Z,39.62
2018-05-18T11:00:09.877Z,39.62
2018-05-18T11:00:41.889Z,39.72
2018-05-18T11:01:13.886Z,39.62
2018-05-18T11:01:45.921Z,39.34
2018-05-18T11:02:17.983Z,39.43
2018-05-18T11:02:50.020Z,39.62
2018-05-18T11:03:22.078Z,39.62
2018-05-18T11:03:54.052Z,39.72
2018-05-18T11:04:26.214Z,39.43
2018-05-18T11:04:58.236Z,39.75
2018-05-18T11:05:30.286Z,39.75
2018-05-18T11:06:02.319Z,39.65
2018-05-18T11:06:34.369Z,39.94
2018-05-18T11:07:06.462Z,39.65
2018-05-18T11:07:38.482Z,39.65
2018-05-18T11:08:10.571Z,39.45
2018-05-18T11:08:42.559Z,39.55
2018-05-18T11:09:14.579Z,39.55
2018-05-18T11:09:46.603Z,39.45
2018-05-18T11:10:18.675Z,39.65
2018-05-18T11:10:50.706Z,39.65
2018-05-18T11:11:23.479Z,39.45
2018-05-18T11:11:55.492Z,39.65
2018-05-18T11:12:27.564Z,39.57
2018-05-18T11:12:59.665Z,39.45
2018-05-18T11:13:31.717Z,39.47
2018-05-18T11:14:03.867Z,39.47
2018-05-18T11:14:35.918Z,39.37
2018-05-18T11:15:08.005Z,39.47
2018-05-18T11:15:40.022Z,39.47
2018-05-18T11:16:12.087Z,39.37
2018-05-18T11:16:44.076Z,39.39
2018-05-18T11:17:16.098Z,39.29
2018-05-18T11:17:48.111Z,39.08
2018-05-18T11:18:20.133Z,39.1
2018-05-18T11:18:52.286Z,39.29
2018-05-18T11:19:24.288Z,39.39
2018-05-18T11:19:56.331Z,39.1
2018-05-18T11:20:28.383Z,39.2
2018-05-18T11:21:00.461Z,39.28
2018-05-18T11:21:32.531Z,39.1
2018-05-18T11:22:04.545Z,38.91
2018-05-18T11:22:36.593Z,38.91
2018-05-18T11:23:08.650Z,39.1
2018-05-18T11:23:40.675Z,39.1
2018-05-18T11:24:12.724Z,39.1
2018-05-18T11:24:44.874Z,39.1
2018-05-18T11:25:16.971Z,39.29
2018-05-18T11:25:49.111Z,39
2018-05-18T11:26:21.185Z,39.2
2018-05-18T11:26:53.361Z,39.2
2018-05-18T11:27:25.417Z,39.1
2018-05-18T11:27:57.473Z,39.1
2018-05-18T11:28:30.182Z,39.2
2018-05-18T11:29:02.335Z,39.1
2018-05-18T11:29:34.349Z,39
2018-05-18T11:30:06.371Z,39
2018-05-18T11:30:38.389Z,38.52
2018-05-18T11:31:10.430Z,38.54
2018-05-18T11:31:42.571Z,38.73
2018-05-18T11:32:15.487Z,38.64
2018-05-18T11:32:47.538Z,38.93
2018-05-18T11:33:19.547Z,38.64
2018-05-18T11:33:51.619Z,38.44
2018-05-18T11:34:23.637Z,38.73
2018-05-18T11:34:55.633Z,38.64
2018-05-18T11:35:27.623Z,38.65
2018-05-18T11:35:59.672Z,38.26
2018-05-18T11:36:31.734Z,38.56
2018-05-18T11:37:04.256Z,38.36
2018-05-18T11:37:36.364Z,38.56
2018-05-18T11:38:08.547Z,38.46
2018-05-18T11:38:40.567Z,38.46
2018-05-18T11:39:12.673Z,38.46
2018-05-18T11:39:44.776Z,38.36
2018-05-18T11:40:16.827Z,38.36
2018-05-18T11:40:48.881Z,38.36
2018-05-18T11:41:20.908Z,38.28
2018-05-18T11:41:53.238Z,38.48
2018-05-18T11:42:25.317Z,38.48
2018-05-18T11:42:57.322Z,38.48
2018-05-18T11:43:29.384Z,38.38
2018-05-18T11:44:01.432Z,38.69
2018-05-18T11:44:33.452Z,38.3
2018-05-18T11:45:05.485Z,38.2
2018-05-18T11:45:37.555Z,38.2
2018-05-18T11:46:09.584Z,38.2
2018-05-18T11:46:41.620Z,38.2
2018-05-18T11:47:13.641Z,38.1
2018-05-18T11:47:45.655Z,38.12
2018-05-18T11:48:17.701Z,38.12
2018-05-18T11:48:49.770Z,38.22
2018-05-18T11:49:21.831Z,38.22
2018-05-18T11:49:53.959Z,37.83
2018-05-18T11:50:25.960Z,37.93
2018-05-18T11:50:58.018Z,37.83
2018-05-18T11:51:30.056Z,37.93
2018-05-18T11:52:02.068Z,38.24
2018-05-18T11:52:34.093Z,37.85
2018-05-18T11:53:06.333Z,37.95
2018-05-18T11:53:38.493Z,37.95
2018-05-18T11:54:10.476Z,37.85
2018-05-18T11:54:42.670Z,37.95
2018-05-18T11:55:14.747Z,38.04
2018-05-18T11:55:46.754Z,37.85
2018-05-18T11:56:18.803Z,37.85
2018-05-18T11:56:51.005Z,37.95
2018-05-18T11:57:23.135Z,37.75
2018-05-18T11:57:55.128Z,37.75
2018-05-18T11:58:27.180Z,37.57
2018-05-18T11:58:59.233Z,37.48
2018-05-18T11:59:31.291Z,37.85
2018-05-18T12:00:03.308Z,37.48
2018-05-18T12:00:35.378Z,37.57
2018-05-18T12:01:07.404Z,36.99
2018-05-18T12:01:39.433Z,37.67
2018-05-18T12:02:11.451Z,37.77
2018-05-18T12:02:43.479Z,37.57
2018-05-18T12:03:15.541Z,37.19
2018-05-18T12:03:47.593Z,37.67
2018-05-18T12:04:19.750Z,37.38
2018-05-18T12:04:51.789Z,37.38
2018-05-18T12:05:23.792Z,37.57
2018-05-18T12:05:55.764Z,37.48
2018-05-18T12:06:27.794Z,37.29
2018-05-18T12:06:59.817Z,37.29
2018-05-18T12:07:31.836Z,37.57
2018-05-18T12:08:03.839Z,37.38
2018-05-18T12:08:35.845Z,37.55
2018-05-18T12:09:07.912Z,37.46
2018-05-18T12:09:39.907Z,37.67
2018-05-18T12:10:11.926Z,37.29
2018-05-18T12:10:43.946Z,37.29
2018-05-18T12:11:16.019Z,37.29
2018-05-18T12:11:48.079Z,37.09
2018-05-18T12:12:20.098Z,36.6
2018-05-18T12:12:52.157Z,36.91
2018-05-18T12:13:24.175Z,36.72
2018-05-18T12:13:56.175Z,36.43
2018-05-18T12:14:28.261Z,36.52
2018-05-18T12:15:00.324Z,36.91
2018-05-18T12:15:32.356Z,36.82
2018-05-18T12:16:04.399Z,37.02
2018-05-18T12:16:36.428Z,36.72
2018-05-18T12:17:08.491Z,36.72
2018-05-18T12:17:40.511Z,36.82
2018-05-18T12:18:12.599Z,36.82
2018-05-18T12:18:44.773Z,36.91
2018-05-18T12:19:16.858Z,36.62
2018-05-18T12:19:48.893Z,36.63
2018-05-18T12:20:21.114Z,36.54
2018-05-18T12:20:53.457Z,36.54
2018-05-18T12:21:25.473Z,36.63
2018-05-18T12:21:57.485Z,36.44
2018-05-18T12:22:29.581Z,36.55
2018-05-18T12:23:01.623Z,36.55
2018-05-18T12:23:33.661Z,36.65
2018-05-18T12:24:05.667Z,36.46
2018-05-18T12:24:37.690Z,36.36
2018-05-18T12:25:09.767Z,36.46
2018-05-18T12:25:41.821Z,36.36
2018-05-18T12:26:13.956Z,36.65
2018-05-18T12:26:46.153Z,36.08
2018-05-18T12:27:18.231Z,36.18
2018-05-18T12:27:50.230Z,36.08
2018-05-18T12:28:22.236Z,35.99
2018-05-18T12:28:54.259Z,36.18
2018-05-18T12:29:26.271Z,36.2
2018-05-18T12:29:58.296Z,36.3
2018-05-18T12:30:30.434Z,36.1
2018-05-18T12:31:02.474Z,35.81
2018-05-18T12:31:35.358Z,35.81
2018-05-18T12:32:07.628Z,36.02
2018-05-18T12:32:39.611Z,35.81
2018-05-18T12:33:11.577Z,35.93
2018-05-18T12:33:43.671Z,35.93
2018-05-18T12:34:15.683Z,36.12
2018-05-18T12:34:47.840Z,35.63
2018-05-18T12:35:19.939Z,35.83
2018-05-18T12:35:52.651Z,35.45
2018-05-18T12:36:24.709Z,35.35
2018-05-18T12:36:56.940Z,35.14
2018-05-18T12:37:29.061Z,35.25
2018-05-18T12:38:01.096Z,35.55
2018-05-18T12:38:33.136Z,35.75
2018-05-18T12:39:05.144Z,35.08
2018-05-18T12:39:37.162Z,35.06
2018-05-18T12:40:09.197Z,35.08
2018-05-18T12:40:41.262Z,35.25
2018-05-18T12:41:13.264Z,35.27
2018-05-18T12:41:45.360Z,35.27
2018-05-18T12:42:17.388Z,35.17
2018-05-18T12:42:49.474Z,35.27
2018-05-18T12:43:21.503Z,35.27
2018-05-18T12:43:53.519Z,35.37
2018-05-18T12:44:26.239Z,35.08
2018-05-18T12:44:58.252Z,35
2018-05-18T12:45:30.308Z,34.9
2018-05-18T12:46:02.808Z,35.1
2018-05-18T12:46:34.867Z,34.9
2018-05-18T12:47:07.377Z,34.9
2018-05-18T12:47:39.407Z,35.1
2018-05-18T12:48:11.404Z,35.19
2018-05-18T12:48:43.484Z,34.8
2018-05-18T12:49:15.550Z,34.7
2018-05-18T12:49:47.601Z,34.62
2018-05-18T12:50:19.749Z,34.62
2018-05-18T12:50:51.703Z,34.81
2018-05-18T12:51:23.758Z,34.23
2018-05-18T12:51:55.784Z,34.34
2018-05-18T12:52:27.793Z,34.05
2018-05-18T12:52:59.794Z,34.05
2018-05-18T12:53:31.791Z,33.58
2018-05-18T12:54:03.832Z,34.36
2018-05-18T12:54:35.974Z,33.97
2018-05-18T12:55:08.007Z,34.16
2018-05-18T12:55:40.058Z,33.69
2018-05-18T12:56:12.082Z,33.89
2018-05-18T12:56:44.081Z,33.89
2018-05-18T12:57:16.067Z,33.69
2018-05-18T12:57:48.068Z,33.79
2018-05-18T12:58:20.149Z,33.59
2018-05-18T12:58:52.190Z,33.8
2018-05-18T12:59:24.238Z,33.61
2018-05-18T12:59:56.370Z,33.61
2018-05-18T13:00:28.410Z,33.41
2018-05-18T13:01:00.446Z,33.61
2018-05-18T13:01:32.487Z,33.62
2018-05-18T13:02:04.492Z,33.12
2018-05-18T13:02:36.470Z,33.53
2018-05-18T13:03:08.500Z,33.53
2018-05-18T13:03:40.520Z,33.23
2018-05-18T13:04:12.577Z,33.43
2018-05-18T13:04:44.569Z,33.23
2018-05-18T13:05:16.599Z,33.33
2018-05-18T13:05:48.646Z,33.23
2018-05-18T13:06:20.672Z,33.23
2018-05-18T13:06:52.675Z,33.43
2018-05-18T13:07:24.828Z,33.43
2018-05-18T13:07:56.847Z,33.05
2018-05-18T13:08:28.873Z,32.95
2018-05-18T13:09:00.885Z,32.76
2018-05-18T13:09:32.903Z,32.86
2018-05-18T13:10:04.919Z,33.05
2018-05-18T13:10:36.932Z,32.86
2018-05-18T13:11:09.045Z,32.95
2018-05-18T13:11:41.031Z,32.86
2018-05-18T13:12:16.724Z,33.05
2018-05-18T13:12:48.730Z,32.77
2018-05-18T13:13:20.925Z,32.57
2018-05-18T13:13:53.018Z,32.57
2018-05-18T13:14:25.057Z,32.77
2018-05-18T13:14:57.079Z,32.67
2018-05-18T13:15:29.088Z,32.77
2018-05-18T13:16:02.016Z,32.98
2018-05-18T13:16:35.173Z,32.89
2018-05-18T13:17:07.490Z,32.67
2018-05-18T13:17:39.572Z,32.59
2018-05-18T13:18:11.715Z,32.59
2018-05-18T13:18:43.737Z,32.49
2018-05-18T13:19:15.794Z,32.69
2018-05-18T13:19:47.806Z,32.59
2018-05-18T13:20:19.846Z,32.59
2018-05-18T13:20:51.960Z,32.59
2018-05-18T13:21:23.909Z,32.2
2018-05-18T13:21:55.927Z,32.39
2018-05-18T13:22:27.954Z,32.6
2018-05-18T13:23:00.025Z,32.21
2018-05-18T13:23:32.070Z,32.51
2018-05-18T13:24:04.081Z,32.51
2018-05-18T13:24:36.113Z,32.31
2018-05-18T13:25:08.178Z,32.41
2018-05-18T13:25:40.175Z,32.41
2018-05-18T13:26:13.003Z,32.31
2018-05-18T13:26:45.052Z,32.51
2018-05-18T13:27:17.122Z,32.41
2018-05-18T13:27:49.921Z,32.59
2018-05-18T13:28:21.934Z,32.69
2018-05-18T13:28:53.977Z,32.97
2018-05-18T13:29:26.050Z,32.48
2018-05-18T13:29:58.169Z,32.86
2018-05-18T13:30:30.282Z,32.95
2018-05-18T13:31:02.305Z,32.97
2018-05-18T13:31:34.320Z,32.57
2018-05-18T13:32:06.349Z,32.48
2018-05-18T13:32:38.439Z,32.87
2018-05-18T13:33:10.539Z,32.69
2018-05-18T13:33:42.877Z,32.59
2018-05-18T13:34:14.910Z,32.59
2018-05-18T13:34:46.952Z,32.59
2018-05-18T13:35:19.005Z,32.49
2018-05-18T13:35:51.059Z,32.67
2018-05-18T13:36:23.192Z,32.67
2018-05-18T13:36:55.248Z,32.67
2018-05-18T13:37:27.264Z,32.76
2018-05-18T13:37:59.339Z,32.86
2018-05-18T13:38:31.508Z,32.93
2018-05-18T13:39:03.620Z,32.74
2018-05-18T13:39:35.643Z,33.33
2018-05-18T13:40:07.689Z,33.31
2018-05-18T13:40:39.751Z,32.72
2018-05-18T13:41:11.832Z,33.22
2018-05-18T13:41:43.877Z,33.59
2018-05-18T13:42:15.914Z,33.69
2018-05-18T13:42:48.010Z,32.81
2018-05-18T13:43:20.036Z,33.12
2018-05-18T13:43:52.046Z,33.12
2018-05-18T13:44:24.174Z,32.84
2018-05-18T13:44:56.346Z,33.03
2018-05-18T13:45:28.387Z,32.64
2018-05-18T13:46:00.452Z,32.74
2018-05-18T13:46:32.495Z,32.95
2018-05-18T13:47:04.502Z,32.46
2018-05-18T13:47:36.546Z,32.56
2018-05-18T13:48:08.567Z,32.46
2018-05-18T13:48:40.666Z,32.56
2018-05-18T13:49:12.683Z,32.65
2018-05-18T13:49:44.697Z,32.56
2018-05-18T13:50:16.697Z,32.57
2018-05-18T13:50:49.301Z,32.67
2018-05-18T13:51:21.363Z,32.48
2018-05-18T13:51:53.395Z,32.67
2018-05-18T13:52:25.426Z,32.28
2018-05-18T13:52:57.471Z,32.28
2018-05-18T13:53:29.483Z,32.08
2018-05-18T13:54:01.503Z,31.98
2018-05-18T13:54:33.521Z,31.9
2018-05-18T13:55:05.567Z,31.9
2018-05-18T13:55:37.563Z,32
2018-05-18T13:56:09.683Z,32.1
2018-05-18T13:56:41.726Z,32.1
2018-05-18T13:57:13.880Z,32.29
2018-05-18T13:57:46.061Z,31.9
2018-05-18T13:58:18.108Z,31.72
2018-05-18T13:58:50.272Z,31.62
2018-05-18T13:59:22.388Z,31.92
2018-05-18T13:59:54.412Z,31.82
2018-05-18T14:00:26.435Z,31.72
2018-05-18T14:00:58.452Z,31.93
2018-05-18T14:01:30.474Z,31.82
2018-05-18T14:02:02.463Z,31.82
2018-05-18T14:02:35.136Z,31.7
2018-05-18T14:03:07.165Z,31.72
2018-05-18T14:03:39.202Z,31.72
2018-05-18T14:04:11.194Z,31.72
2018-05-18T14:04:43.225Z,31.92
2018-05-18T14:05:15.282Z,31.82
2018-05-18T14:05:47.336Z,31.72
2018-05-18T14:06:19.377Z,31.82
2018-05-18T14:06:51.408Z,31.92
2018-05-18T14:07:23.430Z,31.62
2018-05-18T14:07:55.468Z,31.93
2018-05-18T14:08:27.551Z,31.44
2018-05-18T14:08:59.638Z,31.54
2018-05-18T14:09:31.622Z,31.44
2018-05-18T14:10:03.626Z,31.44